sensor_id;sensor_type;location;lat;lon;timestamp;P1;durP1;ratioP1;P2;durP2;ratioP2
75012;SDS011;63567;49.956;20.130;2023-02-01T00:01:17;7.07;;;2.90;;
75012;SDS011;63567;49.956;20.130;2023-02-01T00:03:43;7.93;;;3.47;;
75012;SDS011;63567;49.956;20.130;2023-02-01T00:06:08;6.28;;;3.17;;
75012;SDS011;63567;49.956;20.130;2023-02-01T00:08:33;6.03;;;2.93;;
75012;SDS011;63567;49.956;20.130;2023-02-01T00:11:04;5.68;;;2.80;;
75012;SDS011;63567;49.956;20.130;2023-02-01T00:13:31;5.38;;;2.78;;
75012;SDS011;63567;49.956;20.130;2023-02-01T00:18:33;5.93;;;2.80;;
75012;SDS011;63567;49.956;20.130;2023-02-01T00:20:59;4.40;;;2.13;;
75012;SDS011;63567;49.956;20.130;2023-02-01T00:23:25;6.35;;;2.60;;
75012;SDS011;63567;49.956;20.130;2023-02-01T00:25:50;5.60;;;2.83;;
75012;SDS011;63567;49.956;20.130;2023-02-01T00:28:15;6.28;;;2.38;;
75012;SDS011;63567;49.956;20.130;2023-02-01T00:30:41;6.20;;;2.63;;
75012;SDS011;63567;49.956;20.130;2023-02-01T00:33:06;6.67;;;3.07;;
75012;SDS011;63567;49.956;20.130;2023-02-01T00:35:33;6.10;;;2.90;;
75012;SDS011;63567;49.956;20.130;2023-02-01T00:37:58;5.57;;;2.45;;
75012;SDS011;63567;49.956;20.130;2023-02-01T00:40:25;5.85;;;2.90;;
75012;SDS011;63567;49.956;20.130;2023-02-01T00:42:50;5.90;;;3.00;;
75012;SDS011;63567;49.956;20.130;2023-02-01T00:45:15;6.13;;;2.83;;
75012;SDS011;63567;49.956;20.130;2023-02-01T00:47:41;5.77;;;2.83;;
75012;SDS011;63567;49.956;20.130;2023-02-01T00:50:06;5.40;;;2.83;;
75012;SDS011;63567;49.956;20.130;2023-02-01T00:52:32;5.03;;;2.95;;
75012;SDS011;63567;49.956;20.130;2023-02-01T00:54:57;7.23;;;3.07;;
75012;SDS011;63567;49.956;20.130;2023-02-01T00:57:22;5.83;;;3.00;;
75012;SDS011;63567;49.956;20.130;2023-02-01T00:59:48;4.23;;;2.40;;
75012;SDS011;63567;49.956;20.130;2023-02-01T01:02:13;6.30;;;3.13;;
75012;SDS011;63567;49.956;20.130;2023-02-01T01:04:39;4.80;;;2.80;;
75012;SDS011;63567;49.956;20.130;2023-02-01T01:07:04;4.28;;;2.38;;
75012;SDS011;63567;49.956;20.130;2023-02-01T01:09:30;5.37;;;2.37;;
75012;SDS011;63567;49.956;20.130;2023-02-01T01:11:55;4.03;;;2.17;;
75012;SDS011;63567;49.956;20.130;2023-02-01T01:14:20;6.10;;;2.40;;
75012;SDS011;63567;49.956;20.130;2023-02-01T01:16:45;5.10;;;2.47;;
75012;SDS011;63567;49.956;20.130;2023-02-01T01:19:11;5.83;;;2.70;;
75012;SDS011;63567;49.956;20.130;2023-02-01T01:21:36;5.22;;;2.38;;
75012;SDS011;63567;49.956;20.130;2023-02-01T01:24:01;4.67;;;2.17;;
75012;SDS011;63567;49.956;20.130;2023-02-01T01:26:27;4.85;;;2.40;;
75012;SDS011;63567;49.956;20.130;2023-02-01T01:28:55;4.22;;;2.53;;
75012;SDS011;63567;49.956;20.130;2023-02-01T01:31:21;3.95;;;2.20;;
75012;SDS011;63567;49.956;20.130;2023-02-01T01:33:47;4.15;;;1.98;;
75012;SDS011;63567;49.956;20.130;2023-02-01T01:36:16;4.15;;;2.10;;
75012;SDS011;63567;49.956;20.130;2023-02-01T01:38:42;4.65;;;2.00;;
75012;SDS011;63567;49.956;20.130;2023-02-01T01:41:08;5.15;;;2.22;;
75012;SDS011;63567;49.956;20.130;2023-02-01T01:46:16;4.95;;;2.05;;
75012;SDS011;63567;49.956;20.130;2023-02-01T01:48:43;5.53;;;2.58;;
75012;SDS011;63567;49.956;20.130;2023-02-01T01:51:09;4.78;;;2.20;;
75012;SDS011;63567;49.956;20.130;2023-02-01T01:56:42;4.85;;;2.42;;
75012;SDS011;63567;49.956;20.130;2023-02-01T01:59:09;4.43;;;2.30;;
75012;SDS011;63567;49.956;20.130;2023-02-01T02:04:07;4.55;;;2.22;;
75012;SDS011;63567;49.956;20.130;2023-02-01T02:06:43;6.97;;;3.15;;
75012;SDS011;63567;49.956;20.130;2023-02-01T02:09:14;7.13;;;3.30;;
75012;SDS011;63567;49.956;20.130;2023-02-01T02:11:41;5.82;;;3.00;;
75012;SDS011;63567;49.956;20.130;2023-02-01T02:14:07;6.63;;;2.73;;
75012;SDS011;63567;49.956;20.130;2023-02-01T02:16:46;5.47;;;2.58;;
75012;SDS011;63567;49.956;20.130;2023-02-01T02:19:23;5.97;;;2.72;;
75012;SDS011;63567;49.956;20.130;2023-02-01T02:24:54;4.00;;;1.83;;
75012;SDS011;63567;49.956;20.130;2023-02-01T02:38:11;5.47;;;1.80;;
75012;SDS011;63567;49.956;20.130;2023-02-01T02:40:53;5.13;;;1.98;;
75012;SDS011;63567;49.956;20.130;2023-02-01T02:43:51;5.53;;;2.20;;
75012;SDS011;63567;49.956;20.130;2023-02-01T02:46:40;6.65;;;1.73;;
75012;SDS011;63567;49.956;20.130;2023-02-01T02:49:34;4.30;;;1.60;;
75012;SDS011;63567;49.956;20.130;2023-02-01T02:52:09;7.35;;;1.50;;
75012;SDS011;63567;49.956;20.130;2023-02-01T02:54:57;4.05;;;1.35;;
75012;SDS011;63567;49.956;20.130;2023-02-01T02:57:26;4.60;;;1.23;;
75012;SDS011;63567;49.956;20.130;2023-02-01T03:00:15;3.63;;;0.85;;
75012;SDS011;63567;49.956;20.130;2023-02-01T03:03:02;3.35;;;0.90;;
75012;SDS011;63567;49.956;20.130;2023-02-01T03:05:47;3.85;;;1.08;;
75012;SDS011;63567;49.956;20.130;2023-02-01T03:10:53;4.13;;;0.82;;
75012;SDS011;63567;49.956;20.130;2023-02-01T03:16:17;4.32;;;0.82;;
75012;SDS011;63567;49.956;20.130;2023-02-01T03:21:19;3.42;;;0.82;;
75012;SDS011;63567;49.956;20.130;2023-02-01T03:23:49;4.45;;;0.60;;
75012;SDS011;63567;49.956;20.130;2023-02-01T03:26:16;3.00;;;0.90;;
75012;SDS011;63567;49.956;20.130;2023-02-01T03:28:45;4.18;;;0.90;;
75012;SDS011;63567;49.956;20.130;2023-02-01T03:31:19;5.63;;;1.30;;
75012;SDS011;63567;49.956;20.130;2023-02-01T03:33:44;4.03;;;1.10;;
75012;SDS011;63567;49.956;20.130;2023-02-01T03:36:15;3.03;;;0.90;;
75012;SDS011;63567;49.956;20.130;2023-02-01T03:43:46;3.72;;;1.27;;
75012;SDS011;63567;49.956;20.130;2023-02-01T03:46:16;3.22;;;1.20;;
75012;SDS011;63567;49.956;20.130;2023-02-01T03:48:57;6.15;;;1.60;;
75012;SDS011;63567;49.956;20.130;2023-02-01T03:51:29;5.00;;;1.67;;
75012;SDS011;63567;49.956;20.130;2023-02-01T03:53:57;4.57;;;1.38;;
75012;SDS011;63567;49.956;20.130;2023-02-01T03:56:23;4.13;;;1.40;;
75012;SDS011;63567;49.956;20.130;2023-02-01T03:58:52;4.10;;;1.40;;
75012;SDS011;63567;49.956;20.130;2023-02-01T04:01:24;5.15;;;1.42;;
75012;SDS011;63567;49.956;20.130;2023-02-01T04:03:51;5.00;;;1.65;;
75012;SDS011;63567;49.956;20.130;2023-02-01T04:06:16;4.40;;;1.97;;
75012;SDS011;63567;49.956;20.130;2023-02-01T04:08:42;4.63;;;1.60;;
75012;SDS011;63567;49.956;20.130;2023-02-01T04:11:07;4.63;;;1.50;;
75012;SDS011;63567;49.956;20.130;2023-02-01T04:13:32;5.13;;;1.70;;
75012;SDS011;63567;49.956;20.130;2023-02-01T04:15:57;4.37;;;1.73;;
75012;SDS011;63567;49.956;20.130;2023-02-01T04:18:23;3.87;;;1.53;;
75012;SDS011;63567;49.956;20.130;2023-02-01T04:20:48;5.03;;;1.63;;
75012;SDS011;63567;49.956;20.130;2023-02-01T04:23:13;5.57;;;1.73;;
75012;SDS011;63567;49.956;20.130;2023-02-01T04:25:40;3.92;;;1.67;;
75012;SDS011;63567;49.956;20.130;2023-02-01T04:28:05;4.93;;;1.80;;
75012;SDS011;63567;49.956;20.130;2023-02-01T04:30:31;5.07;;;1.52;;
75012;SDS011;63567;49.956;20.130;2023-02-01T04:32:57;4.50;;;1.60;;
75012;SDS011;63567;49.956;20.130;2023-02-01T04:35:22;6.67;;;2.17;;
75012;SDS011;63567;49.956;20.130;2023-02-01T04:37:47;5.10;;;2.10;;
75012;SDS011;63567;49.956;20.130;2023-02-01T04:40:12;5.87;;;1.67;;
75012;SDS011;63567;49.956;20.130;2023-02-01T04:42:38;4.90;;;2.10;;
75012;SDS011;63567;49.956;20.130;2023-02-01T04:45:03;5.07;;;2.30;;
75012;SDS011;63567;49.956;20.130;2023-02-01T04:47:29;5.45;;;2.20;;
75012;SDS011;63567;49.956;20.130;2023-02-01T04:49:54;6.90;;;2.37;;
75012;SDS011;63567;49.956;20.130;2023-02-01T04:52:19;5.63;;;1.93;;
75012;SDS011;63567;49.956;20.130;2023-02-01T04:54:44;3.70;;;1.50;;
75012;SDS011;63567;49.956;20.130;2023-02-01T04:57:10;4.20;;;1.70;;
75012;SDS011;63567;49.956;20.130;2023-02-01T04:59:38;4.05;;;1.70;;
75012;SDS011;63567;49.956;20.130;2023-02-01T05:02:03;5.40;;;2.13;;
75012;SDS011;63567;49.956;20.130;2023-02-01T05:04:28;6.23;;;1.70;;
75012;SDS011;63567;49.956;20.130;2023-02-01T05:06:54;4.80;;;1.77;;
75012;SDS011;63567;49.956;20.130;2023-02-01T05:09:19;5.77;;;1.53;;
75012;SDS011;63567;49.956;20.130;2023-02-01T05:11:46;5.35;;;2.03;;
75012;SDS011;63567;49.956;20.130;2023-02-01T05:14:30;5.32;;;2.40;;
75012;SDS011;63567;49.956;20.130;2023-02-01T05:16:55;6.13;;;2.57;;
75012;SDS011;63567;49.956;20.130;2023-02-01T05:19:20;4.43;;;2.17;;
75012;SDS011;63567;49.956;20.130;2023-02-01T05:21:45;5.30;;;2.40;;
75012;SDS011;63567;49.956;20.130;2023-02-01T05:24:11;4.93;;;2.10;;
75012;SDS011;63567;49.956;20.130;2023-02-01T05:26:44;6.07;;;3.05;;
75012;SDS011;63567;49.956;20.130;2023-02-01T05:29:09;6.07;;;2.95;;
75012;SDS011;63567;49.956;20.130;2023-02-01T05:31:35;7.80;;;2.80;;
75012;SDS011;63567;49.956;20.130;2023-02-01T05:34:01;8.60;;;2.70;;
75012;SDS011;63567;49.956;20.130;2023-02-01T05:36:26;4.60;;;2.22;;
75012;SDS011;63567;49.956;20.130;2023-02-01T05:38:52;5.05;;;2.85;;
75012;SDS011;63567;49.956;20.130;2023-02-01T05:41:17;6.13;;;2.53;;
75012;SDS011;63567;49.956;20.130;2023-02-01T05:43:42;4.83;;;1.90;;
75012;SDS011;63567;49.956;20.130;2023-02-01T05:46:08;4.47;;;1.80;;
75012;SDS011;63567;49.956;20.130;2023-02-01T05:48:35;5.30;;;2.22;;
75012;SDS011;63567;49.956;20.130;2023-02-01T05:51:01;6.30;;;2.17;;
75012;SDS011;63567;49.956;20.130;2023-02-01T05:53:26;5.73;;;2.10;;
75012;SDS011;63567;49.956;20.130;2023-02-01T05:55:51;5.13;;;1.90;;
75012;SDS011;63567;49.956;20.130;2023-02-01T05:58:16;5.33;;;1.80;;
75012;SDS011;63567;49.956;20.130;2023-02-01T06:00:42;6.70;;;1.80;;
75012;SDS011;63567;49.956;20.130;2023-02-01T06:03:07;6.07;;;1.90;;
75012;SDS011;63567;49.956;20.130;2023-02-01T06:05:32;7.82;;;2.17;;
75012;SDS011;63567;49.956;20.130;2023-02-01T06:07:58;4.67;;;1.70;;
75012;SDS011;63567;49.956;20.130;2023-02-01T06:10:23;4.78;;;2.00;;
75012;SDS011;63567;49.956;20.130;2023-02-01T06:12:48;5.67;;;2.10;;
75012;SDS011;63567;49.956;20.130;2023-02-01T06:15:14;6.33;;;2.00;;
75012;SDS011;63567;49.956;20.130;2023-02-01T06:17:43;5.40;;;1.83;;
75012;SDS011;63567;49.956;20.130;2023-02-01T06:20:10;4.75;;;2.03;;
75012;SDS011;63567;49.956;20.130;2023-02-01T06:22:36;7.03;;;2.10;;
75012;SDS011;63567;49.956;20.130;2023-02-01T06:25:03;6.93;;;2.50;;
75012;SDS011;63567;49.956;20.130;2023-02-01T06:27:29;7.40;;;1.85;;
75012;SDS011;63567;49.956;20.130;2023-02-01T06:29:54;4.80;;;1.23;;
75012;SDS011;63567;49.956;20.130;2023-02-01T06:32:20;6.60;;;2.00;;
75012;SDS011;63567;49.956;20.130;2023-02-01T06:34:45;4.45;;;1.38;;
75012;SDS011;63567;49.956;20.130;2023-02-01T06:37:10;5.03;;;1.37;;
75012;SDS011;63567;49.956;20.130;2023-02-01T06:39:36;5.77;;;1.40;;
75012;SDS011;63567;49.956;20.130;2023-02-01T06:42:01;5.93;;;1.55;;
75012;SDS011;63567;49.956;20.130;2023-02-01T06:44:27;6.60;;;1.52;;
75012;SDS011;63567;49.956;20.130;2023-02-01T06:46:52;7.00;;;1.60;;
75012;SDS011;63567;49.956;20.130;2023-02-01T06:49:17;5.27;;;1.50;;
75012;SDS011;63567;49.956;20.130;2023-02-01T06:51:44;4.90;;;1.70;;
75012;SDS011;63567;49.956;20.130;2023-02-01T06:54:09;4.70;;;1.13;;
75012;SDS011;63567;49.956;20.130;2023-02-01T06:56:35;4.50;;;1.67;;
75012;SDS011;63567;49.956;20.130;2023-02-01T06:59:03;6.80;;;2.07;;
75012;SDS011;63567;49.956;20.130;2023-02-01T07:01:29;8.50;;;2.22;;
75012;SDS011;63567;49.956;20.130;2023-02-01T07:03:54;10.10;;;2.90;;
75012;SDS011;63567;49.956;20.130;2023-02-01T07:06:19;9.93;;;2.70;;
75012;SDS011;63567;49.956;20.130;2023-02-01T07:08:45;10.82;;;2.40;;
75012;SDS011;63567;49.956;20.130;2023-02-01T07:11:11;8.25;;;1.70;;
75012;SDS011;63567;49.956;20.130;2023-02-01T07:13:38;4.07;;;1.17;;
75012;SDS011;63567;49.956;20.130;2023-02-01T07:16:04;7.57;;;1.30;;
75012;SDS011;63567;49.956;20.130;2023-02-01T07:18:32;7.63;;;1.48;;
75012;SDS011;63567;49.956;20.130;2023-02-01T07:20:58;5.90;;;1.30;;
75012;SDS011;63567;49.956;20.130;2023-02-01T07:23:24;4.22;;;1.52;;
75012;SDS011;63567;49.956;20.130;2023-02-01T07:25:54;5.18;;;1.50;;
75012;SDS011;63567;49.956;20.130;2023-02-01T07:28:20;6.43;;;1.70;;
75012;SDS011;63567;49.956;20.130;2023-02-01T07:30:46;4.10;;;1.20;;
75012;SDS011;63567;49.956;20.130;2023-02-01T07:33:16;7.15;;;1.20;;
75012;SDS011;63567;49.956;20.130;2023-02-01T07:35:43;5.28;;;1.50;;
75012;SDS011;63567;49.956;20.130;2023-02-01T07:38:08;5.30;;;1.57;;
75012;SDS011;63567;49.956;20.130;2023-02-01T07:40:33;6.93;;;1.93;;
75012;SDS011;63567;49.956;20.130;2023-02-01T07:42:59;5.77;;;1.53;;
75012;SDS011;63567;49.956;20.130;2023-02-01T07:45:24;5.63;;;1.40;;
75012;SDS011;63567;49.956;20.130;2023-02-01T07:47:51;4.15;;;1.38;;
75012;SDS011;63567;49.956;20.130;2023-02-01T07:50:18;3.53;;;1.17;;
75012;SDS011;63567;49.956;20.130;2023-02-01T07:52:43;4.90;;;1.70;;
75012;SDS011;63567;49.956;20.130;2023-02-01T07:55:08;4.57;;;1.50;;
75012;SDS011;63567;49.956;20.130;2023-02-01T07:57:34;3.63;;;1.10;;
75012;SDS011;63567;49.956;20.130;2023-02-01T07:59:59;5.03;;;1.60;;
75012;SDS011;63567;49.956;20.130;2023-02-01T08:02:43;5.53;;;1.50;;
75012;SDS011;63567;49.956;20.130;2023-02-01T08:05:08;5.53;;;1.60;;
75012;SDS011;63567;49.956;20.130;2023-02-01T08:07:33;4.70;;;1.47;;
75012;SDS011;63567;49.956;20.130;2023-02-01T08:09:59;5.20;;;1.40;;
75012;SDS011;63567;49.956;20.130;2023-02-01T08:12:24;5.13;;;1.30;;
75012;SDS011;63567;49.956;20.130;2023-02-01T08:14:50;4.72;;;1.60;;
75012;SDS011;63567;49.956;20.130;2023-02-01T08:17:15;6.23;;;1.47;;
75012;SDS011;63567;49.956;20.130;2023-02-01T08:19:41;4.47;;;1.43;;
75012;SDS011;63567;49.956;20.130;2023-02-01T08:22:06;4.27;;;1.37;;
75012;SDS011;63567;49.956;20.130;2023-02-01T08:24:32;7.70;;;1.70;;
75012;SDS011;63567;49.956;20.130;2023-02-01T08:26:58;6.88;;;2.13;;
75012;SDS011;63567;49.956;20.130;2023-02-01T08:29:26;4.60;;;1.80;;
75012;SDS011;63567;49.956;20.130;2023-02-01T08:31:51;5.27;;;1.37;;
75012;SDS011;63567;49.956;20.130;2023-02-01T08:34:18;3.90;;;1.52;;
75012;SDS011;63567;49.956;20.130;2023-02-01T08:36:43;4.77;;;1.10;;
75012;SDS011;63567;49.956;20.130;2023-02-01T08:39:09;5.60;;;1.37;;
75012;SDS011;63567;49.956;20.130;2023-02-01T08:41:35;3.92;;;1.48;;
75012;SDS011;63567;49.956;20.130;2023-02-01T08:44:01;5.47;;;1.58;;
75012;SDS011;63567;49.956;20.130;2023-02-01T08:46:26;4.60;;;1.10;;
75012;SDS011;63567;49.956;20.130;2023-02-01T08:48:52;7.78;;;2.00;;
75012;SDS011;63567;49.956;20.130;2023-02-01T08:51:19;5.25;;;1.50;;
75012;SDS011;63567;49.956;20.130;2023-02-01T08:53:46;4.70;;;1.40;;
75012;SDS011;63567;49.956;20.130;2023-02-01T08:56:12;5.50;;;1.30;;
75012;SDS011;63567;49.956;20.130;2023-02-01T08:58:39;3.55;;;1.30;;
75012;SDS011;63567;49.956;20.130;2023-02-01T09:01:05;5.13;;;1.63;;
75012;SDS011;63567;49.956;20.130;2023-02-01T09:03:32;7.70;;;1.63;;
75012;SDS011;63567;49.956;20.130;2023-02-01T09:06:00;4.07;;;1.00;;
75012;SDS011;63567;49.956;20.130;2023-02-01T09:10:52;4.80;;;1.20;;
75012;SDS011;63567;49.956;20.130;2023-02-01T09:13:17;4.17;;;1.00;;
75012;SDS011;63567;49.956;20.130;2023-02-01T09:15:43;4.23;;;1.50;;
75012;SDS011;63567;49.956;20.130;2023-02-01T09:18:08;3.83;;;1.38;;
75012;SDS011;63567;49.956;20.130;2023-02-01T09:20:33;3.07;;;1.00;;
75012;SDS011;63567;49.956;20.130;2023-02-01T09:22:59;3.63;;;1.10;;
75012;SDS011;63567;49.956;20.130;2023-02-01T09:25:25;4.75;;;1.52;;
75012;SDS011;63567;49.956;20.130;2023-02-01T09:27:50;4.35;;;1.13;;
75012;SDS011;63567;49.956;20.130;2023-02-01T09:30:15;7.73;;;1.80;;
75012;SDS011;63567;49.956;20.130;2023-02-01T09:32:41;6.00;;;1.48;;
75012;SDS011;63567;49.956;20.130;2023-02-01T09:35:06;4.87;;;1.80;;
75012;SDS011;63567;49.956;20.130;2023-02-01T09:37:32;5.25;;;1.63;;
75012;SDS011;63567;49.956;20.130;2023-02-01T09:39:57;4.13;;;1.58;;
75012;SDS011;63567;49.956;20.130;2023-02-01T09:45:19;6.47;;;1.50;;
75012;SDS011;63567;49.956;20.130;2023-02-01T09:47:56;5.95;;;2.22;;
75012;SDS011;63567;49.956;20.130;2023-02-01T09:50:31;7.43;;;2.25;;
75012;SDS011;63567;49.956;20.130;2023-02-01T09:53:04;5.90;;;1.80;;
75012;SDS011;63567;49.956;20.130;2023-02-01T09:55:45;5.70;;;1.60;;
75012;SDS011;63567;49.956;20.130;2023-02-01T09:58:17;5.90;;;2.05;;
75012;SDS011;63567;49.956;20.130;2023-02-01T10:00:52;6.43;;;1.83;;
75012;SDS011;63567;49.956;20.130;2023-02-01T10:03:20;3.58;;;1.20;;
75012;SDS011;63567;49.956;20.130;2023-02-01T10:11:35;5.68;;;1.40;;
75012;SDS011;63567;49.956;20.130;2023-02-01T10:27:50;6.38;;;1.52;;
75012;SDS011;63567;49.956;20.130;2023-02-01T10:30:20;5.90;;;1.35;;
75012;SDS011;63567;49.956;20.130;2023-02-01T10:33:01;3.67;;;1.40;;
75012;SDS011;63567;49.956;20.130;2023-02-01T10:35:39;4.47;;;1.30;;
75012;SDS011;63567;49.956;20.130;2023-02-01T10:38:08;5.57;;;1.45;;
75012;SDS011;63567;49.956;20.130;2023-02-01T10:40:44;4.70;;;1.40;;
75012;SDS011;63567;49.956;20.130;2023-02-01T10:43:10;5.17;;;1.83;;
75012;SDS011;63567;49.956;20.130;2023-02-01T10:45:42;4.97;;;1.53;;
75012;SDS011;63567;49.956;20.130;2023-02-01T10:48:08;4.43;;;1.65;;
75012;SDS011;63567;49.956;20.130;2023-02-01T10:50:35;4.43;;;1.60;;
75012;SDS011;63567;49.956;20.130;2023-02-01T10:53:12;2.85;;;1.40;;
75012;SDS011;63567;49.956;20.130;2023-02-01T10:55:56;6.20;;;2.03;;
75012;SDS011;63567;49.956;20.130;2023-02-01T10:58:31;4.47;;;1.80;;
75012;SDS011;63567;49.956;20.130;2023-02-01T11:08:57;5.20;;;2.00;;
75012;SDS011;63567;49.956;20.130;2023-02-01T11:11:25;5.47;;;2.25;;
75012;SDS011;63567;49.956;20.130;2023-02-01T11:13:52;6.65;;;2.03;;
75012;SDS011;63567;49.956;20.130;2023-02-01T11:16:30;7.05;;;2.35;;
75012;SDS011;63567;49.956;20.130;2023-02-01T11:19:02;4.85;;;2.03;;
75012;SDS011;63567;49.956;20.130;2023-02-01T11:21:27;5.70;;;2.00;;
75012;SDS011;63567;49.956;20.130;2023-02-01T11:23:53;6.13;;;2.08;;
75012;SDS011;63567;49.956;20.130;2023-02-01T11:26:20;5.20;;;2.40;;
75012;SDS011;63567;49.956;20.130;2023-02-01T11:28:52;7.05;;;1.98;;
75012;SDS011;63567;49.956;20.130;2023-02-01T11:31:22;5.00;;;2.30;;
75012;SDS011;63567;49.956;20.130;2023-02-01T11:33:53;3.75;;;1.70;;
75012;SDS011;63567;49.956;20.130;2023-02-01T11:36:31;5.47;;;2.13;;
75012;SDS011;63567;49.956;20.130;2023-02-01T11:41:34;5.32;;;2.20;;
75012;SDS011;63567;49.956;20.130;2023-02-01T11:44:17;6.18;;;1.98;;
75012;SDS011;63567;49.956;20.130;2023-02-01T11:46:45;5.47;;;1.90;;
75012;SDS011;63567;49.956;20.130;2023-02-01T11:49:24;4.17;;;1.77;;
75012;SDS011;63567;49.956;20.130;2023-02-01T11:51:59;5.63;;;1.80;;
75012;SDS011;63567;49.956;20.130;2023-02-01T12:08:05;4.68;;;1.52;;
75012;SDS011;63567;49.956;20.130;2023-02-01T12:19:04;7.43;;;2.03;;
75012;SDS011;63567;49.956;20.130;2023-02-01T12:30:25;6.68;;;2.17;;
75012;SDS011;63567;49.956;20.130;2023-02-01T12:33:29;4.65;;;1.98;;
75012;SDS011;63567;49.956;20.130;2023-02-01T12:36:09;5.75;;;1.63;;
75012;SDS011;63567;49.956;20.130;2023-02-01T12:38:51;4.40;;;1.88;;
75012;SDS011;63567;49.956;20.130;2023-02-01T12:44:17;4.28;;;1.90;;
75012;SDS011;63567;49.956;20.130;2023-02-01T12:46:47;7.82;;;2.67;;
75012;SDS011;63567;49.956;20.130;2023-02-01T12:49:22;5.03;;;2.10;;
75012;SDS011;63567;49.956;20.130;2023-02-01T12:52:10;4.72;;;1.80;;
75012;SDS011;63567;49.956;20.130;2023-02-01T12:54:42;7.28;;;2.78;;
75012;SDS011;63567;49.956;20.130;2023-02-01T12:57:13;6.20;;;2.17;;
75012;SDS011;63567;49.956;20.130;2023-02-01T12:59:54;5.38;;;2.22;;
75012;SDS011;63567;49.956;20.130;2023-02-01T13:05:22;6.60;;;2.38;;
75012;SDS011;63567;49.956;20.130;2023-02-01T13:08:10;8.05;;;3.20;;
75012;SDS011;63567;49.956;20.130;2023-02-01T13:10:42;6.80;;;3.35;;
75012;SDS011;63567;49.956;20.130;2023-02-01T13:13:14;7.30;;;2.60;;
75012;SDS011;63567;49.956;20.130;2023-02-01T13:15:47;5.40;;;2.38;;
75012;SDS011;63567;49.956;20.130;2023-02-01T13:18:20;4.43;;;2.25;;
75012;SDS011;63567;49.956;20.130;2023-02-01T13:20:48;5.13;;;2.10;;
75012;SDS011;63567;49.956;20.130;2023-02-01T13:25:58;6.00;;;2.47;;
75012;SDS011;63567;49.956;20.130;2023-02-01T13:33:47;6.35;;;2.50;;
75012;SDS011;63567;49.956;20.130;2023-02-01T13:39:14;6.28;;;2.58;;
75012;SDS011;63567;49.956;20.130;2023-02-01T13:42:02;4.35;;;2.50;;
75012;SDS011;63567;49.956;20.130;2023-02-01T13:44:47;7.10;;;2.42;;
75012;SDS011;63567;49.956;20.130;2023-02-01T13:47:23;5.88;;;2.10;;
75012;SDS011;63567;49.956;20.130;2023-02-01T13:49:52;5.63;;;2.28;;
75012;SDS011;63567;49.956;20.130;2023-02-01T13:52:24;4.55;;;1.83;;
75012;SDS011;63567;49.956;20.130;2023-02-01T13:55:03;6.28;;;1.83;;
75012;SDS011;63567;49.956;20.130;2023-02-01T13:57:41;4.68;;;1.77;;
75012;SDS011;63567;49.956;20.130;2023-02-01T14:13:13;6.15;;;2.35;;
75012;SDS011;63567;49.956;20.130;2023-02-01T14:23:41;4.80;;;2.00;;
75012;SDS011;63567;49.956;20.130;2023-02-01T14:26:10;5.15;;;1.88;;
75012;SDS011;63567;49.956;20.130;2023-02-01T14:28:45;5.20;;;2.33;;
75012;SDS011;63567;49.956;20.130;2023-02-01T14:31:15;8.27;;;3.85;;
75012;SDS011;63567;49.956;20.130;2023-02-01T14:33:55;7.03;;;3.30;;
75012;SDS011;63567;49.956;20.130;2023-02-01T14:36:24;4.45;;;2.10;;
75012;SDS011;63567;49.956;20.130;2023-02-01T14:38:50;7.07;;;2.45;;
75012;SDS011;63567;49.956;20.130;2023-02-01T14:41:30;6.53;;;2.70;;
75012;SDS011;63567;49.956;20.130;2023-02-01T14:49:30;4.15;;;2.30;;
75012;SDS011;63567;49.956;20.130;2023-02-01T14:51:58;6.57;;;3.13;;
75012;SDS011;63567;49.956;20.130;2023-02-01T14:54:27;4.15;;;1.90;;
75012;SDS011;63567;49.956;20.130;2023-02-01T14:56:53;5.45;;;2.00;;
75012;SDS011;63567;49.956;20.130;2023-02-01T14:59:20;4.85;;;2.60;;
75012;SDS011;63567;49.956;20.130;2023-02-01T15:01:50;8.55;;;3.05;;
75012;SDS011;63567;49.956;20.130;2023-02-01T15:04:18;5.72;;;2.30;;
75012;SDS011;63567;49.956;20.130;2023-02-01T15:07:05;4.97;;;2.42;;
75012;SDS011;63567;49.956;20.130;2023-02-01T15:09:37;5.13;;;2.50;;
75012;SDS011;63567;49.956;20.130;2023-02-01T15:15:02;5.45;;;2.70;;
75012;SDS011;63567;49.956;20.130;2023-02-01T15:20:02;5.03;;;2.53;;
75012;SDS011;63567;49.956;20.130;2023-02-01T15:22:36;7.05;;;2.72;;
75012;SDS011;63567;49.956;20.130;2023-02-01T15:25:01;8.13;;;3.20;;
75012;SDS011;63567;49.956;20.130;2023-02-01T15:27:28;6.32;;;3.13;;
75012;SDS011;63567;49.956;20.130;2023-02-01T15:29:54;6.90;;;3.22;;
75012;SDS011;63567;49.956;20.130;2023-02-01T15:32:36;9.10;;;3.60;;
75012;SDS011;63567;49.956;20.130;2023-02-01T15:35:03;6.25;;;3.05;;
75012;SDS011;63567;49.956;20.130;2023-02-01T15:37:30;7.55;;;4.20;;
75012;SDS011;63567;49.956;20.130;2023-02-01T15:42:32;6.78;;;3.53;;
75012;SDS011;63567;49.956;20.130;2023-02-01T15:44:58;9.13;;;3.30;;
75012;SDS011;63567;49.956;20.130;2023-02-01T15:47:27;7.72;;;3.35;;
75012;SDS011;63567;49.956;20.130;2023-02-01T15:49:56;6.68;;;3.25;;
75012;SDS011;63567;49.956;20.130;2023-02-01T15:52:24;6.70;;;3.25;;
75012;SDS011;63567;49.956;20.130;2023-02-01T15:54:57;7.65;;;3.15;;
75012;SDS011;63567;49.956;20.130;2023-02-01T15:57:26;6.85;;;3.35;;
75012;SDS011;63567;49.956;20.130;2023-02-01T15:59:57;6.80;;;3.22;;
75012;SDS011;63567;49.956;20.130;2023-02-01T16:02:25;7.90;;;3.83;;
75012;SDS011;63567;49.956;20.130;2023-02-01T16:04:52;8.30;;;4.22;;
75012;SDS011;63567;49.956;20.130;2023-02-01T16:07:29;8.13;;;4.35;;
75012;SDS011;63567;49.956;20.130;2023-02-01T16:09:57;8.40;;;3.88;;
75012;SDS011;63567;49.956;20.130;2023-02-01T16:12:31;6.68;;;3.80;;
75012;SDS011;63567;49.956;20.130;2023-02-01T16:14:58;9.23;;;4.45;;
75012;SDS011;63567;49.956;20.130;2023-02-01T16:17:24;7.50;;;3.77;;
75012;SDS011;63567;49.956;20.130;2023-02-01T16:19:49;7.07;;;3.50;;
75012;SDS011;63567;49.956;20.130;2023-02-01T16:22:15;6.97;;;3.35;;
75012;SDS011;63567;49.956;20.130;2023-02-01T16:24:40;6.03;;;3.20;;
75012;SDS011;63567;49.956;20.130;2023-02-01T16:27:05;8.27;;;3.57;;
75012;SDS011;63567;49.956;20.130;2023-02-01T16:29:32;7.85;;;4.13;;
75012;SDS011;63567;49.956;20.130;2023-02-01T16:31:57;9.68;;;4.30;;
75012;SDS011;63567;49.956;20.130;2023-02-01T16:34:22;8.70;;;3.83;;
75012;SDS011;63567;49.956;20.130;2023-02-01T16:36:48;6.03;;;3.47;;
75012;SDS011;63567;49.956;20.130;2023-02-01T16:39:19;6.38;;;3.40;;
75012;SDS011;63567;49.956;20.130;2023-02-01T16:41:44;9.38;;;4.50;;
75012;SDS011;63567;49.956;20.130;2023-02-01T16:44:12;8.05;;;4.50;;
75012;SDS011;63567;49.956;20.130;2023-02-01T16:46:42;7.33;;;3.50;;
75012;SDS011;63567;49.956;20.130;2023-02-01T16:49:22;7.15;;;3.72;;
75012;SDS011;63567;49.956;20.130;2023-02-01T16:51:49;6.82;;;3.97;;
75012;SDS011;63567;49.956;20.130;2023-02-01T16:54:17;6.82;;;4.00;;
75012;SDS011;63567;49.956;20.130;2023-02-01T16:56:43;8.38;;;4.43;;
75012;SDS011;63567;49.956;20.130;2023-02-01T16:59:10;6.85;;;4.13;;
75012;SDS011;63567;49.956;20.130;2023-02-01T17:01:35;8.60;;;4.00;;
75012;SDS011;63567;49.956;20.130;2023-02-01T17:04:02;8.38;;;4.95;;
75012;SDS011;63567;49.956;20.130;2023-02-01T17:06:28;7.95;;;4.32;;
75012;SDS011;63567;49.956;20.130;2023-02-01T17:08:54;8.70;;;4.22;;
75012;SDS011;63567;49.956;20.130;2023-02-01T17:11:23;9.48;;;4.78;;
75012;SDS011;63567;49.956;20.130;2023-02-01T17:13:49;9.73;;;4.57;;
75012;SDS011;63567;49.956;20.130;2023-02-01T17:18:42;7.75;;;3.92;;
75012;SDS011;63567;49.956;20.130;2023-02-01T17:21:10;8.80;;;4.40;;